Latest Weather Observations for Parndana

IDS60801

Issued at 7:04 pm CDT Sunday 1 February 2015 (issued every 30 minutes, with the page automatically refreshed every 10 minutes)

About weather observations | Map of weather stations | Latest weather observations for SA | Other Formats
Station Details ID: 022843 Name: PARNDANA CFS AWS Lat: -35.79 Lon: 137.25 Height: 165.0 m
Data from the previous 72 hours. | See also: Recent months at Parndana
Date/Time
CDT
Temp
°C
App
Temp
°C
Dew
Point
Rel
Hum
%
Delta-T
°C
Wind Press
QNH
hPa
Press
MSL
hPa
Rain
since 9 am
mm
Dir
 
Spd
km/h
Gust
km/h
Spd
kts
Gust
kts
01/07:00pm 14.9 9.5 9.5 70 2.8 S 28 37 15 20 - - 0.0
01/06:30pm 14.1 9.4 10.7 80 1.8 S 26 35 14 19 - - 0.0
01/06:00pm 14.2 8.7 10.6 79 1.9 SSE 30 39 16 21 - - 0.0
01/05:30pm 15.7 9.9 10.9 73 2.6 S 32 43 17 23 - - 0.0
01/05:00pm 15.1 11.5 11.7 80 1.8 S 22 35 12 19 - - 0.0
01/04:30pm 17.9 11.9 10.8 63 3.9 S 33 44 18 24 - - 0.0
01/04:00pm 18.2 13.3 10.1 59 4.3 S 26 43 14 23 - - 0.0
01/03:30pm 18.3 12.7 8.8 54 5.0 S 28 37 15 20 - - 0.0
01/03:00pm 16.6 10.3 8.8 60 4.0 SSE 32 46 17 25 - - 0.0
01/02:30pm 17.9 11.4 8.2 53 5.0 S 32 48 17 26 - - 0.0
01/02:27pm 18.0 11.8 8.0 52 5.1 S 30 48 16 26 - - 0.0
01/02:00pm 17.4 12.6 8.8 57 4.5 SSE 24 33 13 18 - - 0.0
01/01:30pm 15.4 8.7 9.7 69 3.0 SSE 35 48 19 26 - - 0.0
01/01:00pm 16.7 11.3 7.9 56 4.5 S 26 37 14 20 - - 0.0
01/12:30pm 17.4 12.0 8.0 54 4.8 S 26 39 14 21 - - 0.0
01/12:00pm 16.6 11.2 8.1 57 4.3 S 26 35 14 19 - - 0.0
01/11:30am 16.6 11.3 8.6 59 4.1 S 26 37 14 20 - - 0.0
01/11:00am 16.3 10.8 9.0 62 3.8 S 28 35 15 19 - - 0.0
01/10:30am 14.9 9.1 9.3 69 2.9 S 30 41 16 22 - - 0.0
01/10:00am 15.3 10.3 9.4 68 3.1 S 26 35 14 19 - - 0.0
01/09:30am 14.9 8.9 8.8 67 3.1 SSE 30 39 16 21 - - 0.0
01/09:00am 14.0 8.2 9.4 74 2.4 S 30 37 16 20 - - 0.4
01/08:30am 14.0 9.4 9.8 76 2.2 S 24 35 13 19 - - 0.4
01/08:00am 13.6 9.0 9.8 78 2.0 S 24 37 13 20 - - 0.4
01/07:30am 13.4 9.1 10.8 84 1.4 S 24 39 13 21 - - 0.4
01/07:00am 13.6 9.6 10.4 81 1.7 S 22 30 12 16 - - 0.4
01/06:30am 13.4 9.5 10.8 84 1.4 SSE 22 28 12 15 - - 0.4
01/06:00am 13.1 9.7 11.2 88 1.0 S 20 30 11 16 - - 0.4
01/05:30am 13.2 9.4 11.3 88 1.0 S 22 32 12 17 - - 0.4
01/05:00am 13.0 9.9 11.6 91 0.7 S 19 24 10 13 - - 0.4
01/04:30am 12.6 9.2 11.2 91 0.7 SSE 20 26 11 14 - - 0.4
01/04:00am 12.9 9.0 12.0 94 0.5 S 24 33 13 18 - - 0.4
01/03:30am 13.0 9.1 12.1 94 0.5 S 24 37 13 20 - - 0.2
01/03:00am 13.1 10.2 12.3 95 0.4 S 19 35 10 19 - - 0.2
01/02:30am 12.9 9.8 12.1 95 0.4 S 20 30 11 16 - - 0.2
01/02:00am 13.2 10.3 12.4 95 0.4 S 19 24 10 13 - - 0.0
01/01:30am 13.2 9.2 11.9 92 0.7 SSE 24 32 13 17 - - 0.0
01/01:00am 14.0 9.8 11.2 83 1.5 SSE 24 35 13 19 - - 0.0
01/12:30am 14.0 9.3 10.8 81 1.7 SSE 26 32 14 17 - - 0.0
01/12:00am 13.6 9.7 12.0 90 0.9 SSE 24 33 13 18 - - 0.0
 
Date/Time
CDT
Temp
°C
App
Temp
°C
Dew
Point
Rel
Hum
%
Delta-T
°C
Wind Press
QNH
hPa
Press
MSL
hPa
Rain
since 9 am
mm
Dir
 
Spd
km/h
Gust
km/h
Spd
kts
Gust
kts
31/11:30pm 13.6 10.1 12.3 92 0.7 SSE 22 28 12 15 - - 0.0
31/11:00pm 14.7 9.8 11.3 80 1.8 SSE 28 35 15 19 - - 0.0
31/10:30pm 14.4 10.0 11.6 83 1.5 SSE 26 35 14 19 - - 0.0
31/10:00pm 15.1 11.2 10.7 75 2.3 SSE 22 30 12 16 - - 0.0
31/09:30pm 15.1 10.7 10.5 74 2.4 SSE 24 33 13 18 - - 0.0
31/09:00pm 15.1 9.5 10.3 73 2.5 SSE 30 41 16 22 - - 0.0
31/08:30pm 15.2 10.0 10.4 73 2.5 SSE 28 37 15 20 - - 0.0
31/08:00pm 15.6 10.4 10.2 70 2.9 SSE 28 37 15 20 - - 0.0
31/07:30pm 15.9 9.9 10.0 68 3.1 SSE 32 44 17 24 - - 0.0
31/07:00pm 15.9 9.8 9.8 67 3.2 SSE 32 41 17 22 - - 0.0
31/06:30pm 16.8 11.5 9.7 63 3.7 SSE 28 43 15 23 - - 0.0
31/06:00pm 17.3 11.3 10.2 63 3.8 SSE 32 39 17 21 - - 0.0
31/05:30pm 17.7 11.8 10.6 63 3.8 SSE 32 41 17 22 - - 0.0
31/05:00pm 17.1 11.9 10.2 64 3.7 SSE 28 37 15 20 - - 0.0
31/04:30pm 17.6 12.5 9.2 58 4.4 SSE 26 33 14 18 - - 0.0
31/04:00pm 18.9 14.2 10.5 58 4.6 SSE 26 39 14 21 - - 0.0
31/03:30pm 17.8 11.9 10.4 62 4.0 SSE 32 39 17 21 - - 0.0
31/03:00pm 17.4 12.3 10.5 64 3.7 SSE 28 39 15 21 - - 0.0
31/02:30pm 18.6 13.9 9.4 55 4.9 SSE 24 35 13 19 - - 0.0
31/02:00pm 17.6 11.9 9.8 60 4.1 SSE 30 43 16 23 - - 0.0
31/01:30pm 18.1 12.5 10.0 59 4.3 SSE 30 39 16 21 - - 0.0
31/01:00pm 18.9 13.5 9.4 54 5.0 SSE 28 37 15 20 - - 0.0
31/12:30pm 20.5 14.8 8.2 45 6.5 SE 28 44 15 24 - - 0.0
31/12:00pm 18.5 12.8 8.2 51 5.3 SSE 28 39 15 21 - - 0.0
31/11:30am 18.3 13.0 8.6 53 5.1 SE 26 35 14 19 - - 0.0
31/11:00am 17.4 11.7 8.3 55 4.7 SSE 28 37 15 20 - - 0.0
31/10:30am 16.9 11.4 9.1 60 4.1 SE 28 37 15 20 - - 0.0
31/10:00am 17.4 11.7 9.8 61 4.0 SSE 30 39 16 21 - - 0.0
31/09:30am 16.5 13.1 11.4 72 2.8 SE 20 32 11 17 - - 0.0
31/09:00am 15.0 11.5 10.8 76 2.2 SSE 20 30 11 16 - - 0.0
31/08:30am 15.8 11.1 10.8 72 2.7 SSE 26 35 14 19 - - 0.0
31/08:00am 15.8 11.8 9.2 65 3.4 SE 20 28 11 15 - - 0.0
31/07:30am 15.2 11.2 9.1 67 3.2 SE 20 28 11 15 - - 0.0
31/07:00am 14.6 10.8 9.2 70 2.8 SE 19 26 10 14 - - 0.0
31/06:30am 14.7 11.7 10.5 76 2.2 SE 17 24 9 13 - - 0.0
31/06:00am 14.4 11.1 9.6 73 2.5 SE 17 22 9 12 - - 0.0
31/05:30am 14.4 10.6 9.8 74 2.4 SE 20 30 11 16 - - 0.0
31/05:00am 14.2 11.0 11.4 83 1.5 SE 19 24 10 13 - - 0.0
31/04:30am 14.1 11.1 10.5 79 1.9 SSE 17 20 9 11 - - 0.0
31/04:00am 13.5 9.7 9.9 79 1.9 SE 20 28 11 15 - - 0.0
31/03:30am 14.0 9.9 10.2 78 2.0 SE 22 32 12 17 - - 0.0
31/03:00am 13.8 9.7 10.0 78 2.0 SE 22 30 12 16 - - 0.0
31/02:30am 13.8 9.2 9.8 77 2.1 SE 24 32 13 17 - - 0.0
31/02:00am 13.4 9.5 9.6 78 2.0 SSE 20 28 11 15 - - 0.0
31/01:30am 13.4 9.1 9.3 76 2.1 SSE 22 30 12 16 - - 0.0
31/01:00am 13.8 9.0 9.0 73 2.5 SE 24 33 13 18 - - 0.0
31/12:30am 13.9 8.7 8.7 71 2.6 SSE 26 35 14 19 - - 0.0
31/12:00am 14.4 8.8 8.8 69 2.9 SSE 28 37 15 20 - - 0.0
 
Date/Time
CDT
Temp
°C
App
Temp
°C
Dew
Point
Rel
Hum
%
Delta-T
°C
Wind Press
QNH
hPa
Press
MSL
hPa
Rain
since 9 am
mm
Dir
 
Spd
km/h
Gust
km/h
Spd
kts
Gust
kts
30/11:30pm 14.4 9.2 8.8 69 2.9 SSE 26 37 14 20 - - 0.0
30/11:00pm 14.4 8.4 8.6 68 2.9 SSE 30 37 16 20 - - 0.0
30/10:30pm 14.5 9.7 8.7 68 3.0 SE 24 33 13 18 - - 0.0
30/10:00pm 14.8 9.6 8.7 67 3.1 SSE 26 37 14 20 - - 0.0
30/09:30pm 14.4 9.1 8.6 68 2.9 SSE 26 37 14 20 - - 0.0
30/09:00pm 15.2 8.9 9.1 67 3.2 SSE 32 43 17 23 - - 0.0
30/08:30pm 15.2 8.7 9.1 67 3.2 SSE 33 43 18 23 - - 0.0
30/08:00pm 15.6 8.7 8.8 64 3.5 SSE 35 44 19 24 - - 0.0
30/07:30pm 16.3 10.0 9.0 62 3.8 SSE 32 44 17 24 - - 0.0
30/07:00pm 17.1 10.7 9.3 60 4.1 SSE 33 46 18 25 - - 0.0
30/06:30pm 18.0 11.7 8.8 55 4.8 SSE 32 44 17 24 - - 0.0
30/06:00pm 18.7 12.8 8.9 53 5.2 SSE 30 43 16 23 - - 0.0
30/05:30pm 18.5 12.0 9.0 54 5.0 SSE 33 46 18 25 - - 0.0
30/05:00pm 19.5 13.9 10.0 54 5.1 SSE 30 43 16 23 - - 0.0
30/04:30pm 19.6 13.8 9.5 52 5.4 SSE 30 43 16 23 - - 0.0
30/04:00pm 21.0 15.2 9.6 48 6.2 SE 30 41 16 22 - - 0.0
30/03:30pm 20.1 13.9 7.8 45 6.4 SSE 30 41 16 22 - - 0.0
30/03:00pm 20.7 14.6 8.4 45 6.5 SE 30 46 16 25 - - 0.0
30/02:30pm 21.4 15.9 9.0 45 6.6 SE 28 43 15 23 - - 0.0
30/02:00pm 20.6 14.4 7.9 44 6.6 SE 30 44 16 24 - - 0.0
30/01:30pm 20.5 15.1 7.8 44 6.6 SE 26 37 14 20 - - 0.0
30/01:00pm 20.2 15.0 8.8 48 6.0 SE 26 43 14 23 - - 0.0
30/12:30pm 20.1 15.3 10.2 53 5.4 SE 26 35 14 19 - - 0.0
30/12:00pm 19.6 14.4 10.3 55 5.0 SE 28 37 15 20 - - 0.0
30/11:30am 19.2 14.5 10.5 57 4.7 ESE 26 33 14 18 - - 0.0
30/11:00am 18.6 13.5 10.7 60 4.3 SE 28 37 15 20 - - 0.0
30/10:30am 17.9 12.5 11.0 64 3.8 SE 30 35 16 19 - - 0.0
30/10:00am 17.3 12.4 11.3 68 3.3 SE 28 37 15 20 - - 0.0
30/09:30am 16.9 12.0 11.2 69 3.1 ESE 28 37 15 20 - - 0.0
30/09:00am 16.5 11.5 12.1 75 2.4 SE 30 39 16 21 - - 0.0
30/08:30am 15.5 11.1 11.7 78 2.1 SE 26 41 14 22 - - 0.0
30/08:00am 15.0 11.7 12.7 86 1.3 SE 22 32 12 17 - - 0.0
30/07:30am 14.4 11.4 12.4 88 1.1 SE 20 30 11 16 - - 0.0
30/07:00am 13.8 11.3 12.4 91 0.8 SE 17 24 9 13 - - 0.0
30/06:30am 13.4 10.8 12.0 91 0.8 SE 17 20 9 11 - - 0.0
30/06:00am 12.8 10.3 11.2 90 0.8 SE 15 19 8 10 - - 0.0
30/05:30am 13.3 10.9 11.5 89 1.0 SE 15 22 8 12 - - 0.0
30/05:00am 13.3 10.6 11.7 90 0.9 SE 17 22 9 12 - - 0.0
30/04:30am 12.6 10.2 11.3 92 0.7 SE 15 20 8 11 - - 0.0
30/04:00am 11.9 9.3 10.8 93 0.6 SSE 15 19 8 10 - - 0.0
30/03:30am 12.0 9.8 10.7 92 0.7 SSE 13 15 7 8 - - 0.0
30/03:00am 12.4 10.6 11.0 91 0.7 SSE 11 15 6 8 - - 0.0
30/02:30am 12.4 10.3 11.1 92 0.7 SSE 13 17 7 9 - - 0.0
30/02:00am 12.5 10.0 11.2 92 0.7 SSE 15 19 8 10 - - 0.0
30/01:30am 13.0 11.4 11.7 92 0.7 SSE 11 15 6 8 - - 0.0
30/01:00am 13.3 11.5 12.0 92 0.7 SSE 13 17 7 9 - - 0.0
30/12:30am 13.5 11.3 12.2 92 0.7 SSE 15 19 8 10 - - 0.0
30/12:00am 13.7 11.2 12.3 91 0.8 SSE 17 20 9 11 - - 0.0
 
Date/Time
CDT
Temp
°C
App
Temp
°C
Dew
Point
Rel
Hum
%
Delta-T
°C
Wind Press
QNH
hPa
Press
MSL
hPa
Rain
since 9 am
mm
Dir
 
Spd
km/h
Gust
km/h
Spd
kts
Gust
kts
29/11:30pm 13.7 11.1 12.1 90 0.9 SSE 17 22 9 12 - - 0.0
29/11:00pm 13.9 10.4 12.1 89 1.0 SSE 22 28 12 15 - - 0.0
29/10:30pm 13.8 11.1 11.7 87 1.1 SSE 17 20 9 11 - - 0.0
29/10:00pm 14.1 11.4 11.8 86 1.2 SSE 17 20 9 11 - - 0.0
29/09:30pm 14.6 11.6 11.9 84 1.5 SSE 19 24 10 13 - - 0.0
29/09:00pm 15.1 11.9 11.9 81 1.7 SSE 20 30 11 16 - - 0.0
29/08:30pm 16.0 11.6 11.8 76 2.3 SSE 26 33 14 18 - - 0.0
29/08:00pm 17.4 12.7 12.1 71 2.9 SSE 28 35 15 19 - - 0.0
29/07:30pm 18.9 15.5 12.4 66 3.7 SSE 22 32 12 17 - - 0.0

Other Formats:

Comma delimited format used in spreadsheet applications
http://www.bom.gov.au/fwo/IDS60801/IDS60801.94807.axf

JavaScript Object Notation format (JSON) in row-major order
http://www.bom.gov.au/fwo/IDS60801/IDS60801.94807.json